Avalon, Wisconsin
Current Conditions -  °F | °C
As of 6:45 PM on Tuesday 21 Oct 2014 (Local Time) from KJVL Reporting Station
Scattered Clouds Scattered Clouds  
Wind Chill: 44°   Ceiling: Unl
Heat Index: 46°   Visibility: 10mi
Dew Point: 36°   Wind: 5mph
Humidity: 66%   Direction: 30°NNE
Pressure: 30.23"   Gusts: NA
Location:  42.63°N, 88.87°W
Report Text: KJVL 212345Z 03004KT 10SM SCT026 08/02 A3023
Loading
Personal Weather Stations






























Interactive Weather Map
Tropical Storm Tracking
New forecast layout! Learn more

10-Day Weather Forecast

Advertisements
Track Severe Weather on mobile